sensor_id;sensor_type;location;lat;lon;timestamp;temperature;humidity
20777;DHT22;10548;47.504;8.248;2023-12-04T00:01:17;-4.40;99.90
20777;DHT22;10548;47.504;8.248;2023-12-04T00:03:44;-4.20;99.90
20777;DHT22;10548;47.504;8.248;2023-12-04T00:06:11;-4.30;99.90
20777;DHT22;10548;47.504;8.248;2023-12-04T00:08:39;-4.20;99.90
20777;DHT22;10548;47.504;8.248;2023-12-04T00:11:06;-4.10;99.90
20777;DHT22;10548;47.504;8.248;2023-12-04T00:13:34;-4.10;99.90
20777;DHT22;10548;47.504;8.248;2023-12-04T00:16:02;-4.10;99.90
20777;DHT22;10548;47.504;8.248;2023-12-04T00:18:29;-4.10;99.90
20777;DHT22;10548;47.504;8.248;2023-12-04T00:20:57;-4.10;99.90
20777;DHT22;10548;47.504;8.248;2023-12-04T00:23:24;-4.00;99.90
20777;DHT22;10548;47.504;8.248;2023-12-04T00:25:51;-4.00;99.90
20777;DHT22;10548;47.504;8.248;2023-12-04T00:28:18;-4.00;99.90
20777;DHT22;10548;47.504;8.248;2023-12-04T00:30:46;-3.90;99.90
20777;DHT22;10548;47.504;8.248;2023-12-04T00:33:13;-3.90;99.90
20777;DHT22;10548;47.504;8.248;2023-12-04T00:35:41;-4.00;99.90
20777;DHT22;10548;47.504;8.248;2023-12-04T00:38:08;-4.00;99.90
20777;DHT22;10548;47.504;8.248;2023-12-04T00:40:35;-4.10;99.90
20777;DHT22;10548;47.504;8.248;2023-12-04T00:43:02;-4.00;99.90
20777;DHT22;10548;47.504;8.248;2023-12-04T00:45:29;-4.10;99.90
20777;DHT22;10548;47.504;8.248;2023-12-04T00:47:57;-4.00;99.90
20777;DHT22;10548;47.504;8.248;2023-12-04T00:50:24;-4.00;99.90
20777;DHT22;10548;47.504;8.248;2023-12-04T00:52:51;-3.90;99.90
20777;DHT22;10548;47.504;8.248;2023-12-04T00:55:18;-3.90;99.90
20777;DHT22;10548;47.504;8.248;2023-12-04T00:57:46;-3.90;99.90
20777;DHT22;10548;47.504;8.248;2023-12-04T01:00:14;-3.90;99.90
20777;DHT22;10548;47.504;8.248;2023-12-04T01:02:41;-4.10;99.90
20777;DHT22;10548;47.504;8.248;2023-12-04T01:05:09;-4.00;99.90
20777;DHT22;10548;47.504;8.248;2023-12-04T01:07:36;-4.00;99.90
20777;DHT22;10548;47.504;8.248;2023-12-04T01:10:04;-4.00;99.90
20777;DHT22;10548;47.504;8.248;2023-12-04T01:12:31;-3.90;99.90
20777;DHT22;10548;47.504;8.248;2023-12-04T01:14:58;-3.90;99.90
20777;DHT22;10548;47.504;8.248;2023-12-04T01:17:25;-4.00;99.90
20777;DHT22;10548;47.504;8.248;2023-12-04T01:19:53;-3.90;99.90
20777;DHT22;10548;47.504;8.248;2023-12-04T01:22:20;-4.00;99.90
20777;DHT22;10548;47.504;8.248;2023-12-04T01:24:47;-3.90;99.90
20777;DHT22;10548;47.504;8.248;2023-12-04T01:27:14;-3.90;99.90
20777;DHT22;10548;47.504;8.248;2023-12-04T01:29:41;-3.80;99.90
20777;DHT22;10548;47.504;8.248;2023-12-04T01:32:08;-3.80;99.90
20777;DHT22;10548;47.504;8.248;2023-12-04T01:34:35;-3.90;99.90
20777;DHT22;10548;47.504;8.248;2023-12-04T01:37:03;-3.90;99.90
20777;DHT22;10548;47.504;8.248;2023-12-04T01:39:30;-4.00;99.90
20777;DHT22;10548;47.504;8.248;2023-12-04T01:41:57;-3.90;99.90
20777;DHT22;10548;47.504;8.248;2023-12-04T01:44:24;-3.90;99.90
20777;DHT22;10548;47.504;8.248;2023-12-04T01:46:51;-3.80;99.90
20777;DHT22;10548;47.504;8.248;2023-12-04T01:49:18;-3.90;99.90
20777;DHT22;10548;47.504;8.248;2023-12-04T01:51:46;-3.90;99.90
20777;DHT22;10548;47.504;8.248;2023-12-04T01:54:13;-3.90;99.90
20777;DHT22;10548;47.504;8.248;2023-12-04T01:56:41;-4.00;99.90
20777;DHT22;10548;47.504;8.248;2023-12-04T01:59:08;-4.00;99.90
20777;DHT22;10548;47.504;8.248;2023-12-04T02:01:36;-3.90;99.90
20777;DHT22;10548;47.504;8.248;2023-12-04T02:04:04;-3.90;99.90
20777;DHT22;10548;47.504;8.248;2023-12-04T02:06:31;-3.90;99.90
20777;DHT22;10548;47.504;8.248;2023-12-04T02:08:59;-3.90;99.90
20777;DHT22;10548;47.504;8.248;2023-12-04T02:11:26;-3.80;99.90
20777;DHT22;10548;47.504;8.248;2023-12-04T02:13:54;-3.70;99.90
20777;DHT22;10548;47.504;8.248;2023-12-04T02:16:23;-3.80;99.90
20777;DHT22;10548;47.504;8.248;2023-12-04T02:18:53;-3.90;99.90
20777;DHT22;10548;47.504;8.248;2023-12-04T02:21:20;-3.70;99.90
20777;DHT22;10548;47.504;8.248;2023-12-04T02:23:52;-3.80;99.90
20777;DHT22;10548;47.504;8.248;2023-12-04T02:26:24;-3.90;99.90
20777;DHT22;10548;47.504;8.248;2023-12-04T02:28:57;-3.90;99.90
20777;DHT22;10548;47.504;8.248;2023-12-04T02:31:27;-3.90;99.90
20777;DHT22;10548;47.504;8.248;2023-12-04T02:33:57;-3.90;99.90
20777;DHT22;10548;47.504;8.248;2023-12-04T02:36:27;-3.90;99.90
20777;DHT22;10548;47.504;8.248;2023-12-04T02:38:56;-3.90;99.90
20777;DHT22;10548;47.504;8.248;2023-12-04T02:41:23;-3.80;99.90
20777;DHT22;10548;47.504;8.248;2023-12-04T02:43:51;-3.80;99.90
20777;DHT22;10548;47.504;8.248;2023-12-04T02:46:18;-3.80;99.90
20777;DHT22;10548;47.504;8.248;2023-12-04T02:48:45;-3.80;99.90
20777;DHT22;10548;47.504;8.248;2023-12-04T02:51:12;-3.90;99.90
20777;DHT22;10548;47.504;8.248;2023-12-04T02:53:39;-3.80;99.90
20777;DHT22;10548;47.504;8.248;2023-12-04T02:56:07;-3.80;99.90
20777;DHT22;10548;47.504;8.248;2023-12-04T02:58:34;-3.80;99.90
20777;DHT22;10548;47.504;8.248;2023-12-04T03:01:01;-3.80;99.90
20777;DHT22;10548;47.504;8.248;2023-12-04T03:03:29;-3.80;99.90
20777;DHT22;10548;47.504;8.248;2023-12-04T03:05:56;-3.70;99.90
20777;DHT22;10548;47.504;8.248;2023-12-04T03:08:23;-3.90;99.90
20777;DHT22;10548;47.504;8.248;2023-12-04T03:10:50;-3.80;99.90
20777;DHT22;10548;47.504;8.248;2023-12-04T03:13:17;-3.90;99.90
20777;DHT22;10548;47.504;8.248;2023-12-04T03:15:44;-3.90;99.90
20777;DHT22;10548;47.504;8.248;2023-12-04T03:18:11;-3.90;99.90
20777;DHT22;10548;47.504;8.248;2023-12-04T03:20:39;-3.80;99.90
20777;DHT22;10548;47.504;8.248;2023-12-04T03:23:06;-4.10;99.90
20777;DHT22;10548;47.504;8.248;2023-12-04T03:25:33;-4.10;99.90
20777;DHT22;10548;47.504;8.248;2023-12-04T03:28:00;-4.10;99.90
20777;DHT22;10548;47.504;8.248;2023-12-04T03:30:27;-4.00;99.90
20777;DHT22;10548;47.504;8.248;2023-12-04T03:32:54;-4.20;99.90
20777;DHT22;10548;47.504;8.248;2023-12-04T03:35:21;-3.90;99.90
20777;DHT22;10548;47.504;8.248;2023-12-04T03:37:48;-4.00;99.90
20777;DHT22;10548;47.504;8.248;2023-12-04T03:40:16;-4.00;99.90
20777;DHT22;10548;47.504;8.248;2023-12-04T03:42:44;-4.00;99.90
20777;DHT22;10548;47.504;8.248;2023-12-04T03:45:11;-4.20;99.90
20777;DHT22;10548;47.504;8.248;2023-12-04T03:47:38;-4.10;99.90
20777;DHT22;10548;47.504;8.248;2023-12-04T03:50:06;-4.00;99.90
20777;DHT22;10548;47.504;8.248;2023-12-04T03:52:33;-3.90;99.90
20777;DHT22;10548;47.504;8.248;2023-12-04T03:55:00;-3.90;99.90
20777;DHT22;10548;47.504;8.248;2023-12-04T03:57:27;-3.80;99.90
20777;DHT22;10548;47.504;8.248;2023-12-04T03:59:54;-3.70;99.90
20777;DHT22;10548;47.504;8.248;2023-12-04T04:02:21;-3.60;99.90
20777;DHT22;10548;47.504;8.248;2023-12-04T04:04:48;-3.80;99.90
20777;DHT22;10548;47.504;8.248;2023-12-04T04:07:16;-4.00;99.90
20777;DHT22;10548;47.504;8.248;2023-12-04T04:09:44;-4.00;99.90
20777;DHT22;10548;47.504;8.248;2023-12-04T04:12:11;-3.90;99.90
20777;DHT22;10548;47.504;8.248;2023-12-04T04:14:38;-3.90;99.90
20777;DHT22;10548;47.504;8.248;2023-12-04T04:17:05;-4.00;99.90
20777;DHT22;10548;47.504;8.248;2023-12-04T04:19:32;-3.90;99.90
20777;DHT22;10548;47.504;8.248;2023-12-04T04:22:00;-3.90;99.90
20777;DHT22;10548;47.504;8.248;2023-12-04T04:24:27;-3.80;99.90
20777;DHT22;10548;47.504;8.248;2023-12-04T04:26:54;-3.70;99.90
20777;DHT22;10548;47.504;8.248;2023-12-04T04:29:21;-3.60;99.90
20777;DHT22;10548;47.504;8.248;2023-12-04T04:31:48;-3.60;99.90
20777;DHT22;10548;47.504;8.248;2023-12-04T04:34:15;-3.60;99.90
20777;DHT22;10548;47.504;8.248;2023-12-04T04:36:45;-3.70;99.90
20777;DHT22;10548;47.504;8.248;2023-12-04T04:39:13;-3.80;99.90
20777;DHT22;10548;47.504;8.248;2023-12-04T04:41:40;-3.70;99.90
20777;DHT22;10548;47.504;8.248;2023-12-04T04:44:07;-3.70;99.90
20777;DHT22;10548;47.504;8.248;2023-12-04T04:46:35;-3.80;99.90
20777;DHT22;10548;47.504;8.248;2023-12-04T04:49:02;-3.70;99.90
20777;DHT22;10548;47.504;8.248;2023-12-04T04:51:34;-3.60;99.90
20777;DHT22;10548;47.504;8.248;2023-12-04T04:54:01;-3.60;99.90
20777;DHT22;10548;47.504;8.248;2023-12-04T04:56:29;-3.60;99.90
20777;DHT22;10548;47.504;8.248;2023-12-04T04:58:56;-3.50;99.90
20777;DHT22;10548;47.504;8.248;2023-12-04T05:01:24;-3.50;99.90
20777;DHT22;10548;47.504;8.248;2023-12-04T05:03:51;-3.50;99.90
20777;DHT22;10548;47.504;8.248;2023-12-04T05:06:18;-3.50;99.90
20777;DHT22;10548;47.504;8.248;2023-12-04T05:08:46;-3.60;99.90
20777;DHT22;10548;47.504;8.248;2023-12-04T05:11:14;-3.60;99.90
20777;DHT22;10548;47.504;8.248;2023-12-04T05:13:42;-3.70;99.90
20777;DHT22;10548;47.504;8.248;2023-12-04T05:16:09;-3.70;99.90
20777;DHT22;10548;47.504;8.248;2023-12-04T05:18:38;-3.70;99.90
20777;DHT22;10548;47.504;8.248;2023-12-04T05:21:09;-3.80;99.90
20777;DHT22;10548;47.504;8.248;2023-12-04T05:23:37;-3.80;99.90
20777;DHT22;10548;47.504;8.248;2023-12-04T05:26:05;-3.80;99.90
20777;DHT22;10548;47.504;8.248;2023-12-04T05:28:33;-3.90;99.90
20777;DHT22;10548;47.504;8.248;2023-12-04T05:31:01;-3.80;99.90
20777;DHT22;10548;47.504;8.248;2023-12-04T05:33:28;-3.70;99.90
20777;DHT22;10548;47.504;8.248;2023-12-04T05:35:55;-3.70;99.90
20777;DHT22;10548;47.504;8.248;2023-12-04T05:38:23;-3.70;99.90
20777;DHT22;10548;47.504;8.248;2023-12-04T05:40:50;-3.80;99.90
20777;DHT22;10548;47.504;8.248;2023-12-04T05:43:17;-3.80;99.90
20777;DHT22;10548;47.504;8.248;2023-12-04T05:45:45;-3.70;99.90
20777;DHT22;10548;47.504;8.248;2023-12-04T05:48:14;-3.70;99.90
20777;DHT22;10548;47.504;8.248;2023-12-04T05:50:41;-3.60;99.90
20777;DHT22;10548;47.504;8.248;2023-12-04T05:53:08;-3.60;99.90
20777;DHT22;10548;47.504;8.248;2023-12-04T05:55:35;-3.60;99.90
20777;DHT22;10548;47.504;8.248;2023-12-04T05:58:03;-3.60;99.90
20777;DHT22;10548;47.504;8.248;2023-12-04T06:00:30;-3.70;99.90
20777;DHT22;10548;47.504;8.248;2023-12-04T06:02:57;-3.70;99.90
20777;DHT22;10548;47.504;8.248;2023-12-04T06:05:25;-3.60;99.90
20777;DHT22;10548;47.504;8.248;2023-12-04T06:07:52;-3.60;99.90
20777;DHT22;10548;47.504;8.248;2023-12-04T06:10:19;-3.60;99.90
20777;DHT22;10548;47.504;8.248;2023-12-04T06:12:46;-3.50;99.90
20777;DHT22;10548;47.504;8.248;2023-12-04T06:15:13;-3.60;99.90
20777;DHT22;10548;47.504;8.248;2023-12-04T06:17:41;-3.70;99.90
20777;DHT22;10548;47.504;8.248;2023-12-04T06:20:08;-3.60;99.90
20777;DHT22;10548;47.504;8.248;2023-12-04T06:22:38;-3.60;99.90
20777;DHT22;10548;47.504;8.248;2023-12-04T06:25:06;-3.60;99.90
20777;DHT22;10548;47.504;8.248;2023-12-04T06:27:34;-3.60;99.90
20777;DHT22;10548;47.504;8.248;2023-12-04T06:30:02;-3.50;99.90
20777;DHT22;10548;47.504;8.248;2023-12-04T06:32:30;-3.50;99.90
20777;DHT22;10548;47.504;8.248;2023-12-04T06:34:58;-3.40;99.90
20777;DHT22;10548;47.504;8.248;2023-12-04T06:37:25;-3.40;99.90
20777;DHT22;10548;47.504;8.248;2023-12-04T06:39:53;-3.40;99.90
20777;DHT22;10548;47.504;8.248;2023-12-04T06:42:21;-3.40;99.90
20777;DHT22;10548;47.504;8.248;2023-12-04T06:44:49;-3.50;99.90
20777;DHT22;10548;47.504;8.248;2023-12-04T06:47:19;-3.50;99.90
20777;DHT22;10548;47.504;8.248;2023-12-04T06:49:49;-3.40;99.90
20777;DHT22;10548;47.504;8.248;2023-12-04T06:52:16;-3.40;99.90
20777;DHT22;10548;47.504;8.248;2023-12-04T06:54:43;-3.50;99.90
20777;DHT22;10548;47.504;8.248;2023-12-04T06:57:10;-3.50;99.90
20777;DHT22;10548;47.504;8.248;2023-12-04T06:59:37;-3.50;99.90
20777;DHT22;10548;47.504;8.248;2023-12-04T07:02:04;-3.60;99.90
20777;DHT22;10548;47.504;8.248;2023-12-04T07:04:32;-3.60;99.90
20777;DHT22;10548;47.504;8.248;2023-12-04T07:06:59;-3.50;99.90
20777;DHT22;10548;47.504;8.248;2023-12-04T07:09:32;-3.50;99.90
20777;DHT22;10548;47.504;8.248;2023-12-04T07:12:00;-3.50;99.90
20777;DHT22;10548;47.504;8.248;2023-12-04T07:14:27;-3.50;99.90
20777;DHT22;10548;47.504;8.248;2023-12-04T07:16:55;-3.50;99.90
20777;DHT22;10548;47.504;8.248;2023-12-04T07:19:22;-3.30;99.90
20777;DHT22;10548;47.504;8.248;2023-12-04T07:21:49;-3.40;99.90
20777;DHT22;10548;47.504;8.248;2023-12-04T07:24:16;-3.40;99.90
20777;DHT22;10548;47.504;8.248;2023-12-04T07:26:44;-3.40;99.90
20777;DHT22;10548;47.504;8.248;2023-12-04T07:29:11;-3.50;99.90
20777;DHT22;10548;47.504;8.248;2023-12-04T07:31:38;-3.60;99.90
20777;DHT22;10548;47.504;8.248;2023-12-04T07:34:05;-3.40;99.90
20777;DHT22;10548;47.504;8.248;2023-12-04T07:36:32;-3.20;99.90
20777;DHT22;10548;47.504;8.248;2023-12-04T07:38:59;-3.20;99.90
20777;DHT22;10548;47.504;8.248;2023-12-04T07:41:26;-3.20;99.90
20777;DHT22;10548;47.504;8.248;2023-12-04T07:43:54;-3.20;99.90
20777;DHT22;10548;47.504;8.248;2023-12-04T07:46:21;-3.20;99.90
20777;DHT22;10548;47.504;8.248;2023-12-04T07:48:48;-3.20;99.90
20777;DHT22;10548;47.504;8.248;2023-12-04T07:51:16;-3.00;99.90
20777;DHT22;10548;47.504;8.248;2023-12-04T07:53:43;-3.00;99.90
20777;DHT22;10548;47.504;8.248;2023-12-04T07:56:12;-2.90;99.90
20777;DHT22;10548;47.504;8.248;2023-12-04T07:58:39;-2.90;99.90
20777;DHT22;10548;47.504;8.248;2023-12-04T08:01:06;-2.80;99.90
20777;DHT22;10548;47.504;8.248;2023-12-04T08:03:34;-2.80;99.90
20777;DHT22;10548;47.504;8.248;2023-12-04T08:06:04;-2.80;99.90
20777;DHT22;10548;47.504;8.248;2023-12-04T08:08:32;-2.60;99.90
20777;DHT22;10548;47.504;8.248;2023-12-04T08:10:59;-2.60;99.90
20777;DHT22;10548;47.504;8.248;2023-12-04T08:13:26;-2.50;99.90
20777;DHT22;10548;47.504;8.248;2023-12-04T08:15:53;-2.70;99.90
20777;DHT22;10548;47.504;8.248;2023-12-04T08:18:21;-2.60;99.90
20777;DHT22;10548;47.504;8.248;2023-12-04T08:20:48;-2.70;99.90
20777;DHT22;10548;47.504;8.248;2023-12-04T08:23:15;-2.70;99.90
20777;DHT22;10548;47.504;8.248;2023-12-04T08:25:42;-2.50;99.90
20777;DHT22;10548;47.504;8.248;2023-12-04T08:28:09;-2.40;99.90
20777;DHT22;10548;47.504;8.248;2023-12-04T08:30:36;-2.40;99.90
20777;DHT22;10548;47.504;8.248;2023-12-04T08:33:03;-2.30;99.90
20777;DHT22;10548;47.504;8.248;2023-12-04T08:35:31;-2.40;99.90
20777;DHT22;10548;47.504;8.248;2023-12-04T08:37:58;-2.10;99.90
20777;DHT22;10548;47.504;8.248;2023-12-04T08:40:26;-2.30;99.90
20777;DHT22;10548;47.504;8.248;2023-12-04T08:42:53;-2.30;99.90
20777;DHT22;10548;47.504;8.248;2023-12-04T08:45:20;-2.00;99.90
20777;DHT22;10548;47.504;8.248;2023-12-04T08:47:47;-2.00;99.90
20777;DHT22;10548;47.504;8.248;2023-12-04T08:50:16;-1.90;99.90
20777;DHT22;10548;47.504;8.248;2023-12-04T08:52:43;-1.70;99.90
20777;DHT22;10548;47.504;8.248;2023-12-04T08:55:11;-2.00;99.90
20777;DHT22;10548;47.504;8.248;2023-12-04T08:57:39;-1.80;99.90
20777;DHT22;10548;47.504;8.248;2023-12-04T09:00:06;-1.80;99.90
20777;DHT22;10548;47.504;8.248;2023-12-04T09:02:36;-1.90;99.90
20777;DHT22;10548;47.504;8.248;2023-12-04T09:05:15;-1.90;99.90
20777;DHT22;10548;47.504;8.248;2023-12-04T09:07:42;-2.20;99.90
20777;DHT22;10548;47.504;8.248;2023-12-04T09:10:29;-2.10;99.90
20777;DHT22;10548;47.504;8.248;2023-12-04T09:13:16;-1.90;99.90
20777;DHT22;10548;47.504;8.248;2023-12-04T09:15:43;-1.90;99.90
20777;DHT22;10548;47.504;8.248;2023-12-04T09:18:10;-1.60;99.90
20777;DHT22;10548;47.504;8.248;2023-12-04T09:20:37;-1.40;99.90
20777;DHT22;10548;47.504;8.248;2023-12-04T09:23:04;-1.30;99.90
20777;DHT22;10548;47.504;8.248;2023-12-04T09:25:35;-1.40;99.90
20777;DHT22;10548;47.504;8.248;2023-12-04T09:28:03;-1.10;99.90
20777;DHT22;10548;47.504;8.248;2023-12-04T09:30:30;-0.70;99.90
20777;DHT22;10548;47.504;8.248;2023-12-04T09:32:58;-0.70;99.90
20777;DHT22;10548;47.504;8.248;2023-12-04T09:35:25;-0.90;99.90
20777;DHT22;10548;47.504;8.248;2023-12-04T09:37:52;-0.70;99.90
20777;DHT22;10548;47.504;8.248;2023-12-04T09:40:19;-1.10;99.90
20777;DHT22;10548;47.504;8.248;2023-12-04T09:42:46;-0.80;99.90
20777;DHT22;10548;47.504;8.248;2023-12-04T09:45:15;-0.70;99.90
20777;DHT22;10548;47.504;8.248;2023-12-04T09:47:42;-0.40;99.90
20777;DHT22;10548;47.504;8.248;2023-12-04T09:50:11;0.00;99.90
20777;DHT22;10548;47.504;8.248;2023-12-04T09:52:38;-0.10;99.90
20777;DHT22;10548;47.504;8.248;2023-12-04T09:55:06;-0.70;99.90
20777;DHT22;10548;47.504;8.248;2023-12-04T09:57:33;-0.70;99.90
20777;DHT22;10548;47.504;8.248;2023-12-04T10:00:02;-0.80;99.90
20777;DHT22;10548;47.504;8.248;2023-12-04T10:02:37;-1.00;99.90
20777;DHT22;10548;47.504;8.248;2023-12-04T10:05:06;-1.60;99.90
20777;DHT22;10548;47.504;8.248;2023-12-04T10:07:34;-1.10;99.90
20777;DHT22;10548;47.504;8.248;2023-12-04T10:10:02;-0.80;99.90
20777;DHT22;10548;47.504;8.248;2023-12-04T10:12:32;-1.20;99.90
20777;DHT22;10548;47.504;8.248;2023-12-04T10:17:42;-0.60;99.90
20777;DHT22;10548;47.504;8.248;2023-12-04T10:20:15;-0.60;99.90
20777;DHT22;10548;47.504;8.248;2023-12-04T10:23:12;-0.10;99.90
20777;DHT22;10548;47.504;8.248;2023-12-04T10:25:39;0.20;99.90
20777;DHT22;10548;47.504;8.248;2023-12-04T10:28:11;0.40;99.90
20777;DHT22;10548;47.504;8.248;2023-12-04T10:30:39;0.60;99.90
20777;DHT22;10548;47.504;8.248;2023-12-04T10:33:07;0.60;99.90
20777;DHT22;10548;47.504;8.248;2023-12-04T10:35:36;0.30;99.90
20777;DHT22;10548;47.504;8.248;2023-12-04T10:38:04;-0.20;99.90
20777;DHT22;10548;47.504;8.248;2023-12-04T10:40:33;-0.10;99.90
20777;DHT22;10548;47.504;8.248;2023-12-04T10:43:23;-0.40;99.90
20777;DHT22;10548;47.504;8.248;2023-12-04T10:45:51;0.10;99.90
20777;DHT22;10548;47.504;8.248;2023-12-04T10:48:19;0.10;99.90
20777;DHT22;10548;47.504;8.248;2023-12-04T10:50:50;0.30;99.90
20777;DHT22;10548;47.504;8.248;2023-12-04T10:53:18;0.20;99.90
20777;DHT22;10548;47.504;8.248;2023-12-04T10:55:45;0.10;99.90
20777;DHT22;10548;47.504;8.248;2023-12-04T10:58:17;-0.40;99.90
20777;DHT22;10548;47.504;8.248;2023-12-04T11:00:47;-0.70;99.90
20777;DHT22;10548;47.504;8.248;2023-12-04T11:03:34;-0.50;99.90
20777;DHT22;10548;47.504;8.248;2023-12-04T11:06:06;-0.50;99.90
20777;DHT22;10548;47.504;8.248;2023-12-04T11:08:36;-0.60;99.90
20777;DHT22;10548;47.504;8.248;2023-12-04T11:11:05;-0.70;99.90
20777;DHT22;10548;47.504;8.248;2023-12-04T11:13:44;-0.90;99.90
20777;DHT22;10548;47.504;8.248;2023-12-04T11:16:21;-0.80;99.90
20777;DHT22;10548;47.504;8.248;2023-12-04T11:18:57;-0.60;99.90
20777;DHT22;10548;47.504;8.248;2023-12-04T11:21:31;-0.60;99.90
20777;DHT22;10548;47.504;8.248;2023-12-04T11:24:00;-0.20;99.90
20777;DHT22;10548;47.504;8.248;2023-12-04T11:26:28;-0.10;99.90
20777;DHT22;10548;47.504;8.248;2023-12-04T11:28:55;0.00;99.90
20777;DHT22;10548;47.504;8.248;2023-12-04T11:31:23;0.00;99.90
20777;DHT22;10548;47.504;8.248;2023-12-04T11:33:50;-0.20;99.90
20777;DHT22;10548;47.504;8.248;2023-12-04T11:36:17;0.00;99.90
20777;DHT22;10548;47.504;8.248;2023-12-04T11:38:46;0.00;99.90
20777;DHT22;10548;47.504;8.248;2023-12-04T11:41:20;0.20;99.90
20777;DHT22;10548;47.504;8.248;2023-12-04T11:43:55;0.40;99.90
20777;DHT22;10548;47.504;8.248;2023-12-04T11:46:24;0.50;99.90
20777;DHT22;10548;47.504;8.248;2023-12-04T11:48:57;0.40;99.90
20777;DHT22;10548;47.504;8.248;2023-12-04T11:52:00;0.30;99.90
20777;DHT22;10548;47.504;8.248;2023-12-04T11:54:28;0.10;99.90
20777;DHT22;10548;47.504;8.248;2023-12-04T11:56:58;-0.10;99.90
20777;DHT22;10548;47.504;8.248;2023-12-04T11:59:26;0.00;99.90
20777;DHT22;10548;47.504;8.248;2023-12-04T12:01:56;0.00;99.90
20777;DHT22;10548;47.504;8.248;2023-12-04T12:04:26;0.50;99.90
20777;DHT22;10548;47.504;8.248;2023-12-04T12:06:58;0.40;99.90
20777;DHT22;10548;47.504;8.248;2023-12-04T12:09:25;0.10;99.90
20777;DHT22;10548;47.504;8.248;2023-12-04T12:11:53;0.30;99.90
20777;DHT22;10548;47.504;8.248;2023-12-04T12:14:23;0.30;99.90
20777;DHT22;10548;47.504;8.248;2023-12-04T12:16:50;0.10;99.90
20777;DHT22;10548;47.504;8.248;2023-12-04T12:19:19;0.40;99.90
20777;DHT22;10548;47.504;8.248;2023-12-04T12:21:46;0.50;99.90
20777;DHT22;10548;47.504;8.248;2023-12-04T12:24:16;0.40;99.90
20777;DHT22;10548;47.504;8.248;2023-12-04T12:26:43;0.30;99.90
20777;DHT22;10548;47.504;8.248;2023-12-04T12:29:11;0.20;99.90
20777;DHT22;10548;47.504;8.248;2023-12-04T12:31:38;0.00;99.90
20777;DHT22;10548;47.504;8.248;2023-12-04T12:34:05;0.20;99.90
20777;DHT22;10548;47.504;8.248;2023-12-04T12:36:32;0.30;99.90
20777;DHT22;10548;47.504;8.248;2023-12-04T12:39:00;0.40;99.90
20777;DHT22;10548;47.504;8.248;2023-12-04T12:41:31;0.30;99.90
20777;DHT22;10548;47.504;8.248;2023-12-04T12:44:00;0.40;99.90
20777;DHT22;10548;47.504;8.248;2023-12-04T12:46:27;0.40;99.90
20777;DHT22;10548;47.504;8.248;2023-12-04T12:48:54;0.40;99.90
20777;DHT22;10548;47.504;8.248;2023-12-04T12:51:23;0.50;99.90
20777;DHT22;10548;47.504;8.248;2023-12-04T12:53:51;0.50;99.90
20777;DHT22;10548;47.504;8.248;2023-12-04T12:56:19;0.50;99.90
20777;DHT22;10548;47.504;8.248;2023-12-04T12:58:46;0.60;99.90
20777;DHT22;10548;47.504;8.248;2023-12-04T13:01:13;0.70;99.90
20777;DHT22;10548;47.504;8.248;2023-12-04T13:03:44;0.50;99.90
20777;DHT22;10548;47.504;8.248;2023-12-04T13:06:12;0.20;99.90
20777;DHT22;10548;47.504;8.248;2023-12-04T13:08:40;0.50;99.90
20777;DHT22;10548;47.504;8.248;2023-12-04T13:11:07;0.70;99.90
20777;DHT22;10548;47.504;8.248;2023-12-04T13:13:35;0.60;99.90
20777;DHT22;10548;47.504;8.248;2023-12-04T13:16:02;0.30;99.90
20777;DHT22;10548;47.504;8.248;2023-12-04T13:18:29;0.20;99.90
20777;DHT22;10548;47.504;8.248;2023-12-04T13:20:59;0.20;99.90
20777;DHT22;10548;47.504;8.248;2023-12-04T13:23:26;0.00;99.90
20777;DHT22;10548;47.504;8.248;2023-12-04T13:25:54;0.00;99.90
20777;DHT22;10548;47.504;8.248;2023-12-04T13:28:24;0.00;99.90
20777;DHT22;10548;47.504;8.248;2023-12-04T13:31:03;-0.10;99.90
20777;DHT22;10548;47.504;8.248;2023-12-04T13:33:30;-0.20;99.90
20777;DHT22;10548;47.504;8.248;2023-12-04T13:35:59;-0.40;99.90
20777;DHT22;10548;47.504;8.248;2023-12-04T13:38:26;-0.50;99.90
20777;DHT22;10548;47.504;8.248;2023-12-04T13:41:03;-0.60;99.90
20777;DHT22;10548;47.504;8.248;2023-12-04T13:43:56;-0.80;99.90
20777;DHT22;10548;47.504;8.248;2023-12-04T13:46:26;-0.80;99.90
20777;DHT22;10548;47.504;8.248;2023-12-04T13:48:57;-0.70;99.90
20777;DHT22;10548;47.504;8.248;2023-12-04T13:51:25;-0.50;99.90
20777;DHT22;10548;47.504;8.248;2023-12-04T13:53:52;-0.60;99.90
20777;DHT22;10548;47.504;8.248;2023-12-04T13:56:27;-0.50;99.90
20777;DHT22;10548;47.504;8.248;2023-12-04T13:59:09;-0.50;99.90
20777;DHT22;10548;47.504;8.248;2023-12-04T14:01:46;-0.40;99.90
20777;DHT22;10548;47.504;8.248;2023-12-04T14:04:13;-0.40;99.90
20777;DHT22;10548;47.504;8.248;2023-12-04T14:06:40;-0.40;99.90
20777;DHT22;10548;47.504;8.248;2023-12-04T14:09:08;-0.40;99.90
20777;DHT22;10548;47.504;8.248;2023-12-04T14:11:37;-0.40;99.90
20777;DHT22;10548;47.504;8.248;2023-12-04T14:14:05;-0.40;99.90
20777;DHT22;10548;47.504;8.248;2023-12-04T14:16:32;-0.60;99.90
20777;DHT22;10548;47.504;8.248;2023-12-04T14:18:59;-0.60;99.90
20777;DHT22;10548;47.504;8.248;2023-12-04T14:21:28;-0.80;99.90
20777;DHT22;10548;47.504;8.248;2023-12-04T14:23:55;-0.80;99.90
20777;DHT22;10548;47.504;8.248;2023-12-04T14:26:22;-0.90;99.90
20777;DHT22;10548;47.504;8.248;2023-12-04T14:28:49;-0.80;99.90
20777;DHT22;10548;47.504;8.248;2023-12-04T14:31:17;-0.70;99.90
20777;DHT22;10548;47.504;8.248;2023-12-04T14:33:44;-0.60;99.90
20777;DHT22;10548;47.504;8.248;2023-12-04T14:36:12;-0.80;99.90
20777;DHT22;10548;47.504;8.248;2023-12-04T14:38:40;-0.90;99.90
20777;DHT22;10548;47.504;8.248;2023-12-04T14:41:07;-0.90;99.90
20777;DHT22;10548;47.504;8.248;2023-12-04T14:43:36;-0.80;99.90
20777;DHT22;10548;47.504;8.248;2023-12-04T14:46:05;-0.70;99.90
20777;DHT22;10548;47.504;8.248;2023-12-04T14:48:38;-0.80;99.90
20777;DHT22;10548;47.504;8.248;2023-12-04T14:51:09;-0.90;99.90
20777;DHT22;10548;47.504;8.248;2023-12-04T14:53:38;-0.90;99.90
20777;DHT22;10548;47.504;8.248;2023-12-04T14:56:30;-0.90;99.90
20777;DHT22;10548;47.504;8.248;2023-12-04T14:59:23;-1.00;99.90
20777;DHT22;10548;47.504;8.248;2023-12-04T15:02:11;-1.00;99.90
20777;DHT22;10548;47.504;8.248;2023-12-04T15:05:17;-1.10;99.90
20777;DHT22;10548;47.504;8.248;2023-12-04T15:08:04;-1.10;99.90
20777;DHT22;10548;47.504;8.248;2023-12-04T15:10:50;-1.10;99.90
20777;DHT22;10548;47.504;8.248;2023-12-04T15:13:36;-1.10;99.90
20777;DHT22;10548;47.504;8.248;2023-12-04T15:16:22;-1.10;99.90
20777;DHT22;10548;47.504;8.248;2023-12-04T15:19:18;-1.20;99.90
20777;DHT22;10548;47.504;8.248;2023-12-04T15:22:03;-1.30;99.90
20777;DHT22;10548;47.504;8.248;2023-12-04T15:24:32;-1.30;99.90
20777;DHT22;10548;47.504;8.248;2023-12-04T15:27:00;-1.40;99.90
20777;DHT22;10548;47.504;8.248;2023-12-04T15:29:27;-1.40;99.90
20777;DHT22;10548;47.504;8.248;2023-12-04T15:31:57;-1.40;99.90
20777;DHT22;10548;47.504;8.248;2023-12-04T15:34:24;-1.40;99.90
20777;DHT22;10548;47.504;8.248;2023-12-04T15:36:51;-1.50;99.90
20777;DHT22;10548;47.504;8.248;2023-12-04T15:39:19;-1.40;99.90
20777;DHT22;10548;47.504;8.248;2023-12-04T15:41:47;-1.40;99.90
20777;DHT22;10548;47.504;8.248;2023-12-04T15:44:14;-1.40;99.90
20777;DHT22;10548;47.504;8.248;2023-12-04T15:46:41;-1.40;99.90